sensor_id;sensor_type;location;lat;lon;timestamp;P1;durP1;ratioP1;P2;durP2;ratioP2
2035;SDS011;23642;42.658;23.350;2024-03-25T00:02:54;100.27;;;95.37;;
2035;SDS011;23642;42.658;23.350;2024-03-25T00:05:32;97.17;;;92.30;;
2035;SDS011;23642;42.658;23.350;2024-03-25T00:08:26;96.67;;;92.07;;
2035;SDS011;23642;42.658;23.350;2024-03-25T00:11:25;96.80;;;92.20;;
2035;SDS011;23642;42.658;23.350;2024-03-25T00:14:14;95.00;;;90.47;;
2035;SDS011;23642;42.658;23.350;2024-03-25T00:17:10;96.70;;;92.00;;
2035;SDS011;23642;42.658;23.350;2024-03-25T00:22:54;88.70;;;84.40;;
2035;SDS011;23642;42.658;23.350;2024-03-25T00:25:54;91.80;;;87.40;;
2035;SDS011;23642;42.658;23.350;2024-03-25T00:28:28;94.75;;;89.95;;
2035;SDS011;23642;42.658;23.350;2024-03-25T00:30:59;91.63;;;87.20;;
2035;SDS011;23642;42.658;23.350;2024-03-25T00:33:38;93.57;;;89.15;;
2035;SDS011;23642;42.658;23.350;2024-03-25T00:36:17;89.70;;;85.40;;
2035;SDS011;23642;42.658;23.350;2024-03-25T00:39:10;93.20;;;88.80;;
2035;SDS011;23642;42.658;23.350;2024-03-25T00:41:53;93.40;;;89.00;;
2035;SDS011;23642;42.658;23.350;2024-03-25T00:44:28;87.70;;;83.60;;
2035;SDS011;23642;42.658;23.350;2024-03-25T00:47:13;88.17;;;84.07;;
2035;SDS011;23642;42.658;23.350;2024-03-25T00:50:10;87.20;;;83.20;;
2035;SDS011;23642;42.658;23.350;2024-03-25T00:52:55;85.63;;;81.57;;
2035;SDS011;23642;42.658;23.350;2024-03-25T00:58:28;86.20;;;82.30;;
2035;SDS011;23642;42.658;23.350;2024-03-25T01:01:11;87.60;;;83.60;;
2035;SDS011;23642;42.658;23.350;2024-03-25T01:03:49;87.73;;;83.73;;
2035;SDS011;23642;42.658;23.350;2024-03-25T01:06:21;88.60;;;84.60;;
2035;SDS011;23642;42.658;23.350;2024-03-25T01:12:33;88.97;;;84.97;;
2035;SDS011;23642;42.658;23.350;2024-03-25T01:22:10;88.87;;;84.80;;
2035;SDS011;23642;42.658;23.350;2024-03-25T01:25:19;82.07;;;78.37;;
2035;SDS011;23642;42.658;23.350;2024-03-25T01:27:46;84.80;;;80.90;;
2035;SDS011;23642;42.658;23.350;2024-03-25T01:30:35;85.10;;;81.20;;
2035;SDS011;23642;42.658;23.350;2024-03-25T01:33:24;81.87;;;78.17;;
2035;SDS011;23642;42.658;23.350;2024-03-25T01:36:19;79.90;;;76.30;;
2035;SDS011;23642;42.658;23.350;2024-03-25T01:39:05;86.20;;;82.20;;
2035;SDS011;23642;42.658;23.350;2024-03-25T01:41:43;87.10;;;83.20;;
2035;SDS011;23642;42.658;23.350;2024-03-25T01:44:13;85.60;;;81.70;;
2035;SDS011;23642;42.658;23.350;2024-03-25T01:46:47;89.13;;;85.03;;
2035;SDS011;23642;42.658;23.350;2024-03-25T01:49:21;89.27;;;85.17;;
2035;SDS011;23642;42.658;23.350;2024-03-25T01:52:26;91.53;;;87.33;;
2035;SDS011;23642;42.658;23.350;2024-03-25T01:55:02;90.60;;;86.40;;
2035;SDS011;23642;42.658;23.350;2024-03-25T01:57:42;90.80;;;86.60;;
2035;SDS011;23642;42.658;23.350;2024-03-25T02:00:27;91.13;;;86.80;;
2035;SDS011;23642;42.658;23.350;2024-03-25T02:02:59;89.70;;;85.57;;
2035;SDS011;23642;42.658;23.350;2024-03-25T02:05:27;89.90;;;85.70;;
2035;SDS011;23642;42.658;23.350;2024-03-25T02:08:00;90.30;;;86.10;;
2035;SDS011;23642;42.658;23.350;2024-03-25T02:10:45;90.53;;;86.33;;
2035;SDS011;23642;42.658;23.350;2024-03-25T02:13:30;88.40;;;84.30;;
2035;SDS011;23642;42.658;23.350;2024-03-25T02:16:16;94.23;;;89.83;;
2035;SDS011;23642;42.658;23.350;2024-03-25T02:19:00;94.00;;;89.60;;
2035;SDS011;23642;42.658;23.350;2024-03-25T02:21:50;96.20;;;91.80;;
2035;SDS011;23642;42.658;23.350;2024-03-25T02:24:54;97.63;;;93.13;;
2035;SDS011;23642;42.658;23.350;2024-03-25T02:27:50;97.23;;;92.73;;
2035;SDS011;23642;42.658;23.350;2024-03-25T02:30:38;99.80;;;95.20;;
2035;SDS011;23642;42.658;23.350;2024-03-25T02:33:23;97.13;;;92.63;;
2035;SDS011;23642;42.658;23.350;2024-03-25T02:36:15;98.50;;;93.90;;
2035;SDS011;23642;42.658;23.350;2024-03-25T02:38:48;97.50;;;92.90;;
2035;SDS011;23642;42.658;23.350;2024-03-25T02:41:19;98.00;;;93.40;;
2035;SDS011;23642;42.658;23.350;2024-03-25T02:43:54;97.27;;;92.67;;
2035;SDS011;23642;42.658;23.350;2024-03-25T02:46:54;100.10;;;95.20;;
2035;SDS011;23642;42.658;23.350;2024-03-25T02:50:05;104.47;;;99.27;;
2035;SDS011;23642;42.658;23.350;2024-03-25T02:52:57;105.03;;;99.73;;
2035;SDS011;23642;42.658;23.350;2024-03-25T02:55:57;104.57;;;99.27;;
2035;SDS011;23642;42.658;23.350;2024-03-25T02:58:29;104.60;;;99.17;;
2035;SDS011;23642;42.658;23.350;2024-03-25T03:01:20;106.50;;;101.00;;
2035;SDS011;23642;42.658;23.350;2024-03-25T03:04:08;104.67;;;99.00;;
2035;SDS011;23642;42.658;23.350;2024-03-25T03:06:59;103.13;;;97.50;;
2035;SDS011;23642;42.658;23.350;2024-03-25T03:09:50;104.83;;;99.10;;
2035;SDS011;23642;42.658;23.350;2024-03-25T03:12:43;105.93;;;100.03;;
2035;SDS011;23642;42.658;23.350;2024-03-25T03:15:19;107.00;;;101.10;;
2035;SDS011;23642;42.658;23.350;2024-03-25T03:18:00;107.70;;;101.70;;
2035;SDS011;23642;42.658;23.350;2024-03-25T03:20:30;110.37;;;104.27;;
2035;SDS011;23642;42.658;23.350;2024-03-25T03:23:16;110.07;;;104.03;;
2035;SDS011;23642;42.658;23.350;2024-03-25T03:26:05;111.80;;;105.60;;
2035;SDS011;23642;42.658;23.350;2024-03-25T03:28:34;115.43;;;109.03;;
2035;SDS011;23642;42.658;23.350;2024-03-25T03:31:07;112.37;;;106.17;;
2035;SDS011;23642;42.658;23.350;2024-03-25T03:33:53;114.30;;;107.90;;
2035;SDS011;23642;42.658;23.350;2024-03-25T03:36:26;116.27;;;109.77;;
2035;SDS011;23642;42.658;23.350;2024-03-25T03:39:20;115.33;;;108.70;;
2035;SDS011;23642;42.658;23.350;2024-03-25T03:42:34;120.80;;;113.90;;
2035;SDS011;23642;42.658;23.350;2024-03-25T03:45:38;118.23;;;111.53;;
2035;SDS011;23642;42.658;23.350;2024-03-25T03:48:15;119.50;;;112.50;;
2035;SDS011;23642;42.658;23.350;2024-03-25T03:51:02;121.83;;;114.70;;
2035;SDS011;23642;42.658;23.350;2024-03-25T03:53:32;121.47;;;114.37;;
2035;SDS011;23642;42.658;23.350;2024-03-25T03:56:35;122.00;;;114.70;;
2035;SDS011;23642;42.658;23.350;2024-03-25T03:59:30;125.17;;;117.77;;
2035;SDS011;23642;42.658;23.350;2024-03-25T04:02:05;126.13;;;118.63;;
2035;SDS011;23642;42.658;23.350;2024-03-25T04:04:40;125.07;;;117.20;;
2035;SDS011;23642;42.658;23.350;2024-03-25T04:10:20;122.97;;;115.57;;
2035;SDS011;23642;42.658;23.350;2024-03-25T04:12:58;121.00;;;113.70;;
2035;SDS011;23642;42.658;23.350;2024-03-25T04:15:35;121.73;;;114.27;;
2035;SDS011;23642;42.658;23.350;2024-03-25T04:18:21;124.27;;;116.70;;
2035;SDS011;23642;42.658;23.350;2024-03-25T04:20:51;121.87;;;114.37;;
2035;SDS011;23642;42.658;23.350;2024-03-25T04:23:20;123.83;;;116.07;;
2035;SDS011;23642;42.658;23.350;2024-03-25T04:26:10;121.47;;;113.97;;
2035;SDS011;23642;42.658;23.350;2024-03-25T04:28:49;124.30;;;116.60;;
2035;SDS011;23642;42.658;23.350;2024-03-25T04:34:18;124.13;;;116.40;;
2035;SDS011;23642;42.658;23.350;2024-03-25T04:36:49;120.07;;;112.57;;
2035;SDS011;23642;42.658;23.350;2024-03-25T04:39:45;120.60;;;113.10;;
2035;SDS011;23642;42.658;23.350;2024-03-25T04:46:09;117.67;;;110.37;;
2035;SDS011;23642;42.658;23.350;2024-03-25T04:49:05;120.37;;;112.87;;
2035;SDS011;23642;42.658;23.350;2024-03-25T04:54:43;118.33;;;110.93;;
2035;SDS011;23642;42.658;23.350;2024-03-25T04:57:50;121.17;;;113.57;;
2035;SDS011;23642;42.658;23.350;2024-03-25T05:00:18;123.67;;;115.67;;
2035;SDS011;23642;42.658;23.350;2024-03-25T05:02:46;123.67;;;115.77;;
2035;SDS011;23642;42.658;23.350;2024-03-25T05:05:28;121.57;;;113.73;;
2035;SDS011;23642;42.658;23.350;2024-03-25T05:08:04;125.73;;;117.63;;
2035;SDS011;23642;42.658;23.350;2024-03-25T05:10:46;126.90;;;118.70;;
2035;SDS011;23642;42.658;23.350;2024-03-25T05:13:16;124.73;;;116.80;;
2035;SDS011;23642;42.658;23.350;2024-03-25T05:18:36;126.53;;;118.53;;
2035;SDS011;23642;42.658;23.350;2024-03-25T05:21:13;128.93;;;120.73;;
2035;SDS011;23642;42.658;23.350;2024-03-25T05:24:02;127.27;;;119.27;;
2035;SDS011;23642;42.658;23.350;2024-03-25T05:26:36;127.80;;;119.37;;
2035;SDS011;23642;42.658;23.350;2024-03-25T05:29:04;128.37;;;120.00;;
2035;SDS011;23642;42.658;23.350;2024-03-25T05:37:32;127.10;;;118.87;;
2035;SDS011;23642;42.658;23.350;2024-03-25T05:40:04;124.87;;;116.93;;
2035;SDS011;23642;42.658;23.350;2024-03-25T05:42:38;128.03;;;120.03;;
2035;SDS011;23642;42.658;23.350;2024-03-25T05:45:11;125.90;;;117.93;;
2035;SDS011;23642;42.658;23.350;2024-03-25T05:48:20;126.80;;;118.80;;
2035;SDS011;23642;42.658;23.350;2024-03-25T05:54:17;125.73;;;117.90;;
2035;SDS011;23642;42.658;23.350;2024-03-25T05:57:01;124.27;;;116.30;;
2035;SDS011;23642;42.658;23.350;2024-03-25T05:59:42;126.27;;;118.47;;
2035;SDS011;23642;42.658;23.350;2024-03-25T06:02:50;125.80;;;118.00;;
2035;SDS011;23642;42.658;23.350;2024-03-25T06:05:42;126.90;;;119.00;;
2035;SDS011;23642;42.658;23.350;2024-03-25T06:11:16;126.90;;;119.00;;
2035;SDS011;23642;42.658;23.350;2024-03-25T06:13:48;127.27;;;119.53;;
2035;SDS011;23642;42.658;23.350;2024-03-25T06:16:20;128.90;;;121.07;;
2035;SDS011;23642;42.658;23.350;2024-03-25T06:18:48;128.03;;;120.17;;
2035;SDS011;23642;42.658;23.350;2024-03-25T06:21:42;127.67;;;119.50;;
2035;SDS011;23642;42.658;23.350;2024-03-25T06:37:00;129.60;;;121.50;;
2035;SDS011;23642;42.658;23.350;2024-03-25T06:39:34;131.10;;;122.53;;
2035;SDS011;23642;42.658;23.350;2024-03-25T06:42:11;129.63;;;121.53;;
2035;SDS011;23642;42.658;23.350;2024-03-25T06:44:46;129.60;;;121.50;;
2035;SDS011;23642;42.658;23.350;2024-03-25T06:47:30;129.63;;;121.57;;
2035;SDS011;23642;42.658;23.350;2024-03-25T06:50:02;129.20;;;121.10;;
2035;SDS011;23642;42.658;23.350;2024-03-25T06:52:44;131.40;;;123.20;;
2035;SDS011;23642;42.658;23.350;2024-03-25T06:55:11;130.83;;;122.53;;
2035;SDS011;23642;42.658;23.350;2024-03-25T06:57:40;131.03;;;122.73;;
2035;SDS011;23642;42.658;23.350;2024-03-25T07:00:08;132.20;;;123.70;;
2035;SDS011;23642;42.658;23.350;2024-03-25T07:02:49;128.33;;;119.93;;
2035;SDS011;23642;42.658;23.350;2024-03-25T07:05:19;132.50;;;123.90;;
2035;SDS011;23642;42.658;23.350;2024-03-25T07:10:37;131.50;;;123.20;;
2035;SDS011;23642;42.658;23.350;2024-03-25T07:13:19;130.40;;;122.00;;
2035;SDS011;23642;42.658;23.350;2024-03-25T07:15:52;132.63;;;123.90;;
2035;SDS011;23642;42.658;23.350;2024-03-25T07:18:20;131.00;;;122.73;;
2035;SDS011;23642;42.658;23.350;2024-03-25T07:20:51;133.40;;;125.10;;
2035;SDS011;23642;42.658;23.350;2024-03-25T07:23:26;131.77;;;123.30;;
2035;SDS011;23642;42.658;23.350;2024-03-25T07:25:54;128.20;;;120.10;;
2035;SDS011;23642;42.658;23.350;2024-03-25T07:28:33;132.73;;;124.43;;
2035;SDS011;23642;42.658;23.350;2024-03-25T07:31:04;139.20;;;129.97;;
2035;SDS011;23642;42.658;23.350;2024-03-25T07:33:31;133.70;;;125.30;;
2035;SDS011;23642;42.658;23.350;2024-03-25T07:36:19;129.77;;;121.30;;
2035;SDS011;23642;42.658;23.350;2024-03-25T07:42:37;132.07;;;123.90;;
2035;SDS011;23642;42.658;23.350;2024-03-25T07:48:49;130.17;;;122.07;;
2035;SDS011;23642;42.658;23.350;2024-03-25T07:51:29;133.20;;;124.87;;
2035;SDS011;23642;42.658;23.350;2024-03-25T07:54:15;135.10;;;126.30;;
2035;SDS011;23642;42.658;23.350;2024-03-25T07:56:58;131.53;;;123.23;;
2035;SDS011;23642;42.658;23.350;2024-03-25T07:59:36;130.63;;;122.43;;
2035;SDS011;23642;42.658;23.350;2024-03-25T08:02:14;131.03;;;122.87;;
2035;SDS011;23642;42.658;23.350;2024-03-25T08:04:52;131.50;;;122.90;;
2035;SDS011;23642;42.658;23.350;2024-03-25T08:07:34;129.40;;;121.23;;
2035;SDS011;23642;42.658;23.350;2024-03-25T08:11:05;130.47;;;122.30;;
2035;SDS011;23642;42.658;23.350;2024-03-25T08:17:29;130.40;;;122.37;;
2035;SDS011;23642;42.658;23.350;2024-03-25T08:20:33;130.70;;;122.53;;
2035;SDS011;23642;42.658;23.350;2024-03-25T10:31:02;123.23;;;115.77;;
2035;SDS011;23642;42.658;23.350;2024-03-25T10:35:29;122.10;;;114.60;;
2035;SDS011;23642;42.658;23.350;2024-03-25T10:37:47;120.10;;;113.10;;
2035;SDS011;23642;42.658;23.350;2024-03-25T11:46:24;120.07;;;113.30;;
2035;SDS011;23642;42.658;23.350;2024-03-25T15:00:40;113.07;;;106.87;;
2035;SDS011;23642;42.658;23.350;2024-03-25T15:03:22;112.97;;;106.77;;
2035;SDS011;23642;42.658;23.350;2024-03-25T16:26:11;108.80;;;102.17;;
2035;SDS011;23642;42.658;23.350;2024-03-25T16:32:39;111.43;;;104.93;;
2035;SDS011;23642;42.658;23.350;2024-03-25T17:18:17;110.70;;;103.80;;
2035;SDS011;23642;42.658;23.350;2024-03-25T17:21:01;111.90;;;105.20;;
2035;SDS011;23642;42.658;23.350;2024-03-25T17:23:30;110.27;;;103.67;;
2035;SDS011;23642;42.658;23.350;2024-03-25T17:26:01;106.27;;;99.87;;
2035;SDS011;23642;42.658;23.350;2024-03-25T17:28:52;108.63;;;102.23;;
2035;SDS011;23642;42.658;23.350;2024-03-25T17:31:19;109.20;;;102.60;;
2035;SDS011;23642;42.658;23.350;2024-03-25T17:33:47;107.07;;;100.67;;
2035;SDS011;23642;42.658;23.350;2024-03-25T17:36:19;111.00;;;104.20;;
2035;SDS011;23642;42.658;23.350;2024-03-25T17:39:03;109.93;;;103.33;;
2035;SDS011;23642;42.658;23.350;2024-03-25T17:41:33;109.70;;;103.10;;
2035;SDS011;23642;42.658;23.350;2024-03-25T17:46:44;107.53;;;101.23;;
2035;SDS011;23642;42.658;23.350;2024-03-25T17:55:11;104.90;;;98.80;;
2035;SDS011;23642;42.658;23.350;2024-03-25T17:57:42;108.50;;;102.10;;
2035;SDS011;23642;42.658;23.350;2024-03-25T18:00:28;107.03;;;100.83;;
2035;SDS011;23642;42.658;23.350;2024-03-25T18:02:59;106.80;;;100.20;;
2035;SDS011;23642;42.658;23.350;2024-03-25T18:05:50;107.00;;;100.70;;
2035;SDS011;23642;42.658;23.350;2024-03-25T18:08:47;103.20;;;97.20;;
2035;SDS011;23642;42.658;23.350;2024-03-25T18:11:28;104.63;;;98.57;;
2035;SDS011;23642;42.658;23.350;2024-03-25T18:13:55;103.63;;;97.63;;
2035;SDS011;23642;42.658;23.350;2024-03-25T18:16:24;105.37;;;99.17;;
2035;SDS011;23642;42.658;23.350;2024-03-25T18:18:53;106.70;;;100.37;;
2035;SDS011;23642;42.658;23.350;2024-03-25T18:21:39;105.27;;;99.07;;
2035;SDS011;23642;42.658;23.350;2024-03-25T18:24:13;105.87;;;99.77;;
2035;SDS011;23642;42.658;23.350;2024-03-25T18:26:42;104.27;;;98.20;;
2035;SDS011;23642;42.658;23.350;2024-03-25T18:29:22;107.40;;;101.03;;
2035;SDS011;23642;42.658;23.350;2024-03-25T18:32:20;107.30;;;100.90;;
2035;SDS011;23642;42.658;23.350;2024-03-25T18:34:49;106.87;;;100.57;;
2035;SDS011;23642;42.658;23.350;2024-03-25T18:37:30;105.17;;;98.80;;
2035;SDS011;23642;42.658;23.350;2024-03-25T18:40:15;107.60;;;101.30;;
2035;SDS011;23642;42.658;23.350;2024-03-25T18:43:21;104.93;;;98.90;;
2035;SDS011;23642;42.658;23.350;2024-03-25T18:46:24;105.87;;;99.70;;
2035;SDS011;23642;42.658;23.350;2024-03-25T18:49:00;107.10;;;100.60;;
2035;SDS011;23642;42.658;23.350;2024-03-25T18:51:33;106.17;;;100.07;;
2035;SDS011;23642;42.658;23.350;2024-03-25T18:54:41;104.53;;;98.63;;
2035;SDS011;23642;42.658;23.350;2024-03-25T18:57:28;105.70;;;99.70;;
2035;SDS011;23642;42.658;23.350;2024-03-25T19:00:14;104.40;;;98.30;;
2035;SDS011;23642;42.658;23.350;2024-03-25T19:02:45;104.80;;;98.70;;
2035;SDS011;23642;42.658;23.350;2024-03-25T19:05:16;108.03;;;101.63;;
2035;SDS011;23642;42.658;23.350;2024-03-25T19:07:43;108.70;;;102.30;;
2035;SDS011;23642;42.658;23.350;2024-03-25T19:10:24;107.80;;;101.50;;
2035;SDS011;23642;42.658;23.350;2024-03-25T19:13:13;108.00;;;101.60;;
2035;SDS011;23642;42.658;23.350;2024-03-25T19:15:47;106.83;;;100.47;;
2035;SDS011;23642;42.658;23.350;2024-03-25T19:18:17;109.00;;;102.60;;
2035;SDS011;23642;42.658;23.350;2024-03-25T19:21:00;105.57;;;99.47;;
2035;SDS011;23642;42.658;23.350;2024-03-25T19:23:53;106.07;;;100.03;;
2035;SDS011;23642;42.658;23.350;2024-03-25T19:26:21;105.80;;;99.67;;
2035;SDS011;23642;42.658;23.350;2024-03-25T19:28:48;106.13;;;100.03;;
2035;SDS011;23642;42.658;23.350;2024-03-25T19:31:18;107.23;;;101.00;;
2035;SDS011;23642;42.658;23.350;2024-03-25T19:33:47;106.23;;;100.23;;
2035;SDS011;23642;42.658;23.350;2024-03-25T19:36:26;108.27;;;102.07;;
2035;SDS011;23642;42.658;23.350;2024-03-25T19:39:21;107.47;;;101.37;;
2035;SDS011;23642;42.658;23.350;2024-03-25T19:45:03;105.87;;;99.83;;
2035;SDS011;23642;42.658;23.350;2024-03-25T19:47:35;106.90;;;100.80;;
2035;SDS011;23642;42.658;23.350;2024-03-25T19:50:19;109.30;;;103.13;;
2035;SDS011;23642;42.658;23.350;2024-03-25T19:53:00;108.33;;;102.07;;
2035;SDS011;23642;42.658;23.350;2024-03-25T19:55:28;106.07;;;100.07;;
2035;SDS011;23642;42.658;23.350;2024-03-25T19:58:24;108.37;;;102.17;;
2035;SDS011;23642;42.658;23.350;2024-03-25T20:00:54;107.00;;;100.90;;
2035;SDS011;23642;42.658;23.350;2024-03-25T20:03:21;105.80;;;99.70;;
2035;SDS011;23642;42.658;23.350;2024-03-25T20:06:04;107.57;;;101.37;;
2035;SDS011;23642;42.658;23.350;2024-03-25T20:09:08;108.20;;;102.00;;
2035;SDS011;23642;42.658;23.350;2024-03-25T20:11:35;108.07;;;101.77;;
2035;SDS011;23642;42.658;23.350;2024-03-25T20:14:03;107.60;;;101.30;;
2035;SDS011;23642;42.658;23.350;2024-03-25T20:16:32;107.63;;;101.43;;
2035;SDS011;23642;42.658;23.350;2024-03-25T20:19:00;108.40;;;101.87;;
2035;SDS011;23642;42.658;23.350;2024-03-25T20:21:28;106.60;;;99.80;;
2035;SDS011;23642;42.658;23.350;2024-03-25T20:24:12;108.27;;;101.23;;
2035;SDS011;23642;42.658;23.350;2024-03-25T20:26:38;109.13;;;102.73;;
2035;SDS011;23642;42.658;23.350;2024-03-25T20:29:04;106.97;;;100.77;;
2035;SDS011;23642;42.658;23.350;2024-03-25T20:31:34;106.73;;;100.67;;
2035;SDS011;23642;42.658;23.350;2024-03-25T20:34:01;108.07;;;101.23;;
2035;SDS011;23642;42.658;23.350;2024-03-25T20:36:28;107.40;;;100.53;;
2035;SDS011;23642;42.658;23.350;2024-03-25T20:39:01;108.87;;;102.10;;
2035;SDS011;23642;42.658;23.350;2024-03-25T20:41:30;107.00;;;99.50;;
2035;SDS011;23642;42.658;23.350;2024-03-25T20:44:15;108.73;;;102.13;;
2035;SDS011;23642;42.658;23.350;2024-03-25T20:47:04;109.13;;;102.67;;
2035;SDS011;23642;42.658;23.350;2024-03-25T20:49:30;112.90;;;105.00;;
2035;SDS011;23642;42.658;23.350;2024-03-25T20:52:00;113.63;;;106.63;;
2035;SDS011;23642;42.658;23.350;2024-03-25T20:54:28;113.63;;;106.20;;
2035;SDS011;23642;42.658;23.350;2024-03-25T20:56:58;113.83;;;106.60;;
2035;SDS011;23642;42.658;23.350;2024-03-25T20:59:24;116.03;;;108.33;;
2035;SDS011;23642;42.658;23.350;2024-03-25T21:01:51;117.77;;;110.43;;
2035;SDS011;23642;42.658;23.350;2024-03-25T21:04:20;117.17;;;109.00;;
2035;SDS011;23642;42.658;23.350;2024-03-25T21:06:48;117.10;;;109.10;;
2035;SDS011;23642;42.658;23.350;2024-03-25T21:09:15;118.67;;;110.87;;
2035;SDS011;23642;42.658;23.350;2024-03-25T21:11:43;117.83;;;110.27;;
2035;SDS011;23642;42.658;23.350;2024-03-25T21:14:10;122.33;;;114.20;;
2035;SDS011;23642;42.658;23.350;2024-03-25T21:16:40;123.23;;;114.93;;
2035;SDS011;23642;42.658;23.350;2024-03-25T21:19:14;127.30;;;118.43;;
2035;SDS011;23642;42.658;23.350;2024-03-25T21:21:50;125.13;;;116.63;;
2035;SDS011;23642;42.658;23.350;2024-03-25T21:24:17;125.37;;;117.17;;
2035;SDS011;23642;42.658;23.350;2024-03-25T21:26:45;129.40;;;120.40;;
2035;SDS011;23642;42.658;23.350;2024-03-25T21:29:38;127.80;;;119.60;;
2035;SDS011;23642;42.658;23.350;2024-03-25T21:32:07;127.00;;;118.70;;
2035;SDS011;23642;42.658;23.350;2024-03-25T21:37:20;127.20;;;118.90;;
2035;SDS011;23642;42.658;23.350;2024-03-25T21:48:29;127.77;;;119.07;;
2035;SDS011;23642;42.658;23.350;2024-03-25T21:50:58;125.37;;;117.03;;
2035;SDS011;23642;42.658;23.350;2024-03-25T21:53:26;125.10;;;116.67;;
2035;SDS011;23642;42.658;23.350;2024-03-25T21:55:53;124.60;;;116.67;;
2035;SDS011;23642;42.658;23.350;2024-03-25T21:58:22;127.67;;;119.10;;
2035;SDS011;23642;42.658;23.350;2024-03-25T22:00:55;127.73;;;119.63;;
2035;SDS011;23642;42.658;23.350;2024-03-25T22:03:24;126.73;;;118.83;;
2035;SDS011;23642;42.658;23.350;2024-03-25T22:06:15;125.20;;;117.27;;
2035;SDS011;23642;42.658;23.350;2024-03-25T22:08:57;121.43;;;113.60;;
2035;SDS011;23642;42.658;23.350;2024-03-25T22:11:26;125.97;;;117.97;;
2035;SDS011;23642;42.658;23.350;2024-03-25T22:13:59;125.20;;;117.50;;
2035;SDS011;23642;42.658;23.350;2024-03-25T22:16:26;124.00;;;116.07;;
2035;SDS011;23642;42.658;23.350;2024-03-25T22:18:55;126.03;;;118.33;;
2035;SDS011;23642;42.658;23.350;2024-03-25T22:21:29;126.10;;;118.10;;
2035;SDS011;23642;42.658;23.350;2024-03-25T22:24:02;122.73;;;115.10;;
2035;SDS011;23642;42.658;23.350;2024-03-25T22:26:34;122.03;;;114.43;;
2035;SDS011;23642;42.658;23.350;2024-03-25T22:29:01;136.70;;;124.97;;
2035;SDS011;23642;42.658;23.350;2024-03-25T22:31:28;132.07;;;122.03;;
2035;SDS011;23642;42.658;23.350;2024-03-25T22:33:55;131.10;;;121.10;;
2035;SDS011;23642;42.658;23.350;2024-03-25T22:36:23;125.90;;;117.47;;
2035;SDS011;23642;42.658;23.350;2024-03-25T22:39:12;129.30;;;120.57;;
2035;SDS011;23642;42.658;23.350;2024-03-25T22:41:40;127.23;;;119.43;;
2035;SDS011;23642;42.658;23.350;2024-03-25T22:44:09;126.53;;;118.43;;
2035;SDS011;23642;42.658;23.350;2024-03-25T22:46:37;128.57;;;120.03;;
2035;SDS011;23642;42.658;23.350;2024-03-25T22:49:12;123.00;;;115.50;;
2035;SDS011;23642;42.658;23.350;2024-03-25T22:51:40;125.57;;;118.10;;
2035;SDS011;23642;42.658;23.350;2024-03-25T22:54:16;126.33;;;118.67;;
2035;SDS011;23642;42.658;23.350;2024-03-25T22:56:44;126.03;;;118.50;;
2035;SDS011;23642;42.658;23.350;2024-03-25T22:59:10;126.50;;;119.10;;
2035;SDS011;23642;42.658;23.350;2024-03-25T23:01:46;124.50;;;117.10;;
2035;SDS011;23642;42.658;23.350;2024-03-25T23:04:35;121.70;;;114.67;;
2035;SDS011;23642;42.658;23.350;2024-03-25T23:07:15;123.53;;;116.22;;
2035;SDS011;23642;42.658;23.350;2024-03-25T23:09:52;121.87;;;114.23;;
2035;SDS011;23642;42.658;23.350;2024-03-25T23:12:23;120.87;;;113.60;;
2035;SDS011;23642;42.658;23.350;2024-03-25T23:15:01;122.83;;;115.17;;
2035;SDS011;23642;42.658;23.350;2024-03-25T23:17:34;124.07;;;115.73;;
2035;SDS011;23642;42.658;23.350;2024-03-25T23:20:04;124.67;;;116.77;;
2035;SDS011;23642;42.658;23.350;2024-03-25T23:22:43;124.70;;;117.05;;
2035;SDS011;23642;42.658;23.350;2024-03-25T23:25:15;124.93;;;117.57;;
2035;SDS011;23642;42.658;23.350;2024-03-25T23:27:42;120.10;;;112.80;;
2035;SDS011;23642;42.658;23.350;2024-03-25T23:30:10;124.07;;;116.37;;
2035;SDS011;23642;42.658;23.350;2024-03-25T23:32:37;121.50;;;114.40;;
2035;SDS011;23642;42.658;23.350;2024-03-25T23:35:03;122.67;;;115.07;;
2035;SDS011;23642;42.658;23.350;2024-03-25T23:37:33;120.63;;;113.78;;
2035;SDS011;23642;42.658;23.350;2024-03-25T23:40:01;124.70;;;116.90;;
2035;SDS011;23642;42.658;23.350;2024-03-25T23:45:19;129.03;;;120.60;;
2035;SDS011;23642;42.658;23.350;2024-03-25T23:48:04;125.65;;;117.28;;
2035;SDS011;23642;42.658;23.350;2024-03-25T23:50:36;122.72;;;115.43;;
2035;SDS011;23642;42.658;23.350;2024-03-25T23:53:22;127.15;;;119.55;;
2035;SDS011;23642;42.658;23.350;2024-03-25T23:56:07;127.13;;;119.60;;
2035;SDS011;23642;42.658;23.350;2024-03-25T23:59:00;126.75;;;118.70;;
